sensor_id;sensor_type;location;lat;lon;timestamp;pressure;altitude;pressure_sealevel;temperature;humidity
27425;BME280;15244;49.088;11.886;2023-12-20T00:04:40;95651.97;;;6.02;55.23
27425;BME280;15244;49.088;11.886;2023-12-20T00:09:42;95646.97;;;6.04;55.41
27425;BME280;15244;49.088;11.886;2023-12-20T00:14:45;95669.69;;;5.99;55.22
27425;BME280;15244;49.088;11.886;2023-12-20T00:19:48;95656.66;;;6.05;55.14
27425;BME280;15244;49.088;11.886;2023-12-20T00:24:59;95638.88;;;6.04;55.21
27425;BME280;15244;49.088;11.886;2023-12-20T00:30:02;95637.31;;;6.03;54.79
27425;BME280;15244;49.088;11.886;2023-12-20T00:35:04;95632.69;;;6.03;54.94
27425;BME280;15244;49.088;11.886;2023-12-20T00:40:11;95625.75;;;6.06;54.86
27425;BME280;15244;49.088;11.886;2023-12-20T00:45:15;95620.06;;;6.11;54.95
27425;BME280;15244;49.088;11.886;2023-12-20T00:50:17;95623.25;;;6.17;54.86
27425;BME280;15244;49.088;11.886;2023-12-20T00:55:21;95623.25;;;6.17;54.70
27425;BME280;15244;49.088;11.886;2023-12-20T01:00:22;95632.94;;;6.18;55.63
27425;BME280;15244;49.088;11.886;2023-12-20T01:05:25;95636.06;;;6.20;55.11
27425;BME280;15244;49.088;11.886;2023-12-20T01:10:36;95638.88;;;6.23;55.53
27425;BME280;15244;49.088;11.886;2023-12-20T01:15:40;95629.59;;;6.24;55.76
27425;BME280;15244;49.088;11.886;2023-12-20T01:20:46;95633.09;;;6.25;55.66
27425;BME280;15244;49.088;11.886;2023-12-20T01:25:48;95633.09;;;6.25;56.14
27425;BME280;15244;49.088;11.886;2023-12-20T01:30:49;95627.66;;;6.25;55.83
27425;BME280;15244;49.088;11.886;2023-12-20T01:35:54;95616.53;;;6.30;56.49
27425;BME280;15244;49.088;11.886;2023-12-20T01:40:55;95601.16;;;6.34;56.53
27425;BME280;15244;49.088;11.886;2023-12-20T01:45:57;95601.16;;;6.34;56.15
27425;BME280;15244;49.088;11.886;2023-12-20T01:50:59;95601.50;;;6.33;56.31
27425;BME280;15244;49.088;11.886;2023-12-20T01:56:11;95591.34;;;6.26;56.49
27425;BME280;15244;49.088;11.886;2023-12-20T02:01:14;95608.31;;;6.23;56.74
27425;BME280;15244;49.088;11.886;2023-12-20T02:06:23;95598.59;;;6.22;56.72
27425;BME280;15244;49.088;11.886;2023-12-20T02:11:28;95586.66;;;6.23;56.50
27425;BME280;15244;49.088;11.886;2023-12-20T02:16:36;95576.59;;;6.23;56.76
27425;BME280;15244;49.088;11.886;2023-12-20T02:21:38;95571.53;;;6.22;56.87
27425;BME280;15244;49.088;11.886;2023-12-20T02:26:41;95564.63;;;6.24;57.20
27425;BME280;15244;49.088;11.886;2023-12-20T02:31:49;95563.50;;;6.25;57.29
27425;BME280;15244;49.088;11.886;2023-12-20T02:36:53;95559.94;;;6.21;57.37
27425;BME280;15244;49.088;11.886;2023-12-20T02:41:55;95549.88;;;6.22;57.72
27425;BME280;15244;49.088;11.886;2023-12-20T02:47:00;95560.56;;;6.15;57.66
27425;BME280;15244;49.088;11.886;2023-12-20T02:52:02;95553.19;;;6.12;57.51
27425;BME280;15244;49.088;11.886;2023-12-20T02:57:04;95550.47;;;6.12;57.58
27425;BME280;15244;49.088;11.886;2023-12-20T03:02:07;95543.13;;;6.12;57.55
27425;BME280;15244;49.088;11.886;2023-12-20T03:07:09;95541.63;;;6.15;57.82
27425;BME280;15244;49.088;11.886;2023-12-20T03:12:11;95533.06;;;6.13;57.60
27425;BME280;15244;49.088;11.886;2023-12-20T03:17:12;95542.13;;;6.20;58.47
27425;BME280;15244;49.088;11.886;2023-12-20T03:22:16;95543.34;;;6.23;58.54
27425;BME280;15244;49.088;11.886;2023-12-20T03:27:22;95533.72;;;6.25;57.72
27425;BME280;15244;49.088;11.886;2023-12-20T03:32:31;95536.78;;;6.24;58.17
27425;BME280;15244;49.088;11.886;2023-12-20T03:37:33;95544.47;;;6.22;57.96
27425;BME280;15244;49.088;11.886;2023-12-20T03:42:34;95554.69;;;6.09;58.47
27425;BME280;15244;49.088;11.886;2023-12-20T03:47:38;95567.06;;;6.10;58.64
27425;BME280;15244;49.088;11.886;2023-12-20T03:52:40;95549.69;;;6.11;58.80
27425;BME280;15244;49.088;11.886;2023-12-20T03:57:44;95546.25;;;6.14;58.93
27425;BME280;15244;49.088;11.886;2023-12-20T04:02:50;95546.91;;;6.07;58.76
27425;BME280;15244;49.088;11.886;2023-12-20T04:07:56;95547.28;;;6.06;59.19
27425;BME280;15244;49.088;11.886;2023-12-20T04:13:00;95550.47;;;6.12;59.36
27425;BME280;15244;49.088;11.886;2023-12-20T04:18:04;95545.84;;;6.12;59.07
27425;BME280;15244;49.088;11.886;2023-12-20T04:23:06;95549.25;;;6.09;58.97
27425;BME280;15244;49.088;11.886;2023-12-20T04:28:11;95558.88;;;6.06;59.28
27425;BME280;15244;49.088;11.886;2023-12-20T04:33:18;95559.59;;;6.03;59.24
27425;BME280;15244;49.088;11.886;2023-12-20T04:38:19;95560.72;;;6.02;59.17
27425;BME280;15244;49.088;11.886;2023-12-20T04:43:21;95565.38;;;6.02;59.74
27425;BME280;15244;49.088;11.886;2023-12-20T04:48:23;95555.75;;;6.04;59.84
27425;BME280;15244;49.088;11.886;2023-12-20T04:53:29;95552.69;;;6.06;59.55
27425;BME280;15244;49.088;11.886;2023-12-20T04:58:38;95552.22;;;6.00;59.43
27425;BME280;15244;49.088;11.886;2023-12-20T05:03:42;95551.91;;;6.05;59.77
27425;BME280;15244;49.088;11.886;2023-12-20T05:08:44;95548.78;;;6.03;59.82
27425;BME280;15244;49.088;11.886;2023-12-20T05:13:55;95542.34;;;6.12;59.76
27425;BME280;15244;49.088;11.886;2023-12-20T05:18:57;95544.41;;;6.18;59.30
27425;BME280;15244;49.088;11.886;2023-12-20T05:24:00;95549.41;;;6.16;59.82
27425;BME280;15244;49.088;11.886;2023-12-20T05:29:02;95566.50;;;6.20;60.04
27425;BME280;15244;49.088;11.886;2023-12-20T05:34:06;95565.41;;;6.25;59.43
27425;BME280;15244;49.088;11.886;2023-12-20T05:39:10;95574.31;;;6.25;59.89
27425;BME280;15244;49.088;11.886;2023-12-20T05:44:12;95587.06;;;6.25;60.02
27425;BME280;15244;49.088;11.886;2023-12-20T05:49:13;95586.72;;;6.26;59.51
27425;BME280;15244;49.088;11.886;2023-12-20T05:54:20;95598.75;;;6.29;59.51
27425;BME280;15244;49.088;11.886;2023-12-20T05:59:22;95604.44;;;6.24;59.50
27425;BME280;15244;49.088;11.886;2023-12-20T06:04:26;95617.34;;;6.31;59.53
27425;BME280;15244;49.088;11.886;2023-12-20T06:09:28;95604.94;;;6.29;59.97
27425;BME280;15244;49.088;11.886;2023-12-20T06:14:33;95619.69;;;6.32;60.09
27425;BME280;15244;49.088;11.886;2023-12-20T06:19:37;95593.47;;;6.36;59.70
27425;BME280;15244;49.088;11.886;2023-12-20T06:24:40;95621.75;;;6.39;59.81
27425;BME280;15244;49.088;11.886;2023-12-20T06:29:43;95631.28;;;6.33;59.80
27425;BME280;15244;49.088;11.886;2023-12-20T06:34:47;95637.50;;;6.33;59.65
27425;BME280;15244;49.088;11.886;2023-12-20T06:40:01;95630.09;;;6.30;59.79
27425;BME280;15244;49.088;11.886;2023-12-20T06:45:06;95639.72;;;6.27;59.93
27425;BME280;15244;49.088;11.886;2023-12-20T06:50:12;95643.22;;;6.28;59.62
27425;BME280;15244;49.088;11.886;2023-12-20T06:55:16;95654.06;;;6.28;59.56
27425;BME280;15244;49.088;11.886;2023-12-20T07:00:22;95660.59;;;6.27;59.85
27425;BME280;15244;49.088;11.886;2023-12-20T07:05:26;95664.66;;;6.17;60.00
27425;BME280;15244;49.088;11.886;2023-12-20T07:10:28;95687.06;;;6.18;59.83
27425;BME280;15244;49.088;11.886;2023-12-20T07:15:32;95673.44;;;6.11;59.62
27425;BME280;15244;49.088;11.886;2023-12-20T07:20:41;95681.59;;;6.14;60.09
27425;BME280;15244;49.088;11.886;2023-12-20T07:25:48;95688.16;;;6.13;59.55
27425;BME280;15244;49.088;11.886;2023-12-20T07:30:49;95697.56;;;6.19;59.99
27425;BME280;15244;49.088;11.886;2023-12-20T07:35:51;95713.81;;;6.19;60.45
27425;BME280;15244;49.088;11.886;2023-12-20T07:40:56;95714.88;;;6.15;60.28
27425;BME280;15244;49.088;11.886;2023-12-20T07:46:04;95724.63;;;6.19;60.10
27425;BME280;15244;49.088;11.886;2023-12-20T07:51:08;95734.69;;;6.19;60.08
27425;BME280;15244;49.088;11.886;2023-12-20T07:56:15;95726.91;;;6.17;60.16
27425;BME280;15244;49.088;11.886;2023-12-20T08:01:23;95740.00;;;6.15;60.01
27425;BME280;15244;49.088;11.886;2023-12-20T08:06:25;95728.06;;;6.16;60.64
27425;BME280;15244;49.088;11.886;2023-12-20T08:11:33;95760.53;;;6.16;60.03
27425;BME280;15244;49.088;11.886;2023-12-20T08:16:35;95753.63;;;6.19;60.38
27425;BME280;15244;49.088;11.886;2023-12-20T08:21:37;95747.94;;;6.24;60.48
27425;BME280;15244;49.088;11.886;2023-12-20T08:26:39;95757.00;;;6.32;60.59
27425;BME280;15244;49.088;11.886;2023-12-20T08:31:42;95762.06;;;6.33;60.24
27425;BME280;15244;49.088;11.886;2023-12-20T08:36:44;95773.31;;;6.35;60.49
27425;BME280;15244;49.088;11.886;2023-12-20T08:41:52;95758.66;;;6.36;60.45
27425;BME280;15244;49.088;11.886;2023-12-20T08:46:56;95750.25;;;6.41;60.50
27425;BME280;15244;49.088;11.886;2023-12-20T08:51:58;95746.38;;;6.42;60.21
27425;BME280;15244;49.088;11.886;2023-12-20T08:57:08;95761.50;;;6.43;60.42
27425;BME280;15244;49.088;11.886;2023-12-20T09:02:12;95759.56;;;6.44;60.79
27425;BME280;15244;49.088;11.886;2023-12-20T09:07:25;95751.31;;;6.37;61.07
27425;BME280;15244;49.088;11.886;2023-12-20T09:12:29;95747.59;;;6.45;60.95
27425;BME280;15244;49.088;11.886;2023-12-20T09:17:36;95745.31;;;6.47;60.93
27425;BME280;15244;49.088;11.886;2023-12-20T09:22:38;95737.19;;;6.47;60.81
27425;BME280;15244;49.088;11.886;2023-12-20T09:27:46;95758.00;;;6.43;60.89
27425;BME280;15244;49.088;11.886;2023-12-20T09:32:48;95766.22;;;6.46;61.04
27425;BME280;15244;49.088;11.886;2023-12-20T09:37:50;95747.75;;;6.52;60.92
27425;BME280;15244;49.088;11.886;2023-12-20T09:43:03;95762.78;;;6.49;60.85
27425;BME280;15244;49.088;11.886;2023-12-20T09:48:05;95769.06;;;6.54;60.88
27425;BME280;15244;49.088;11.886;2023-12-20T09:53:15;95778.81;;;6.58;60.61
27425;BME280;15244;49.088;11.886;2023-12-20T09:58:18;95760.56;;;6.55;61.25
27425;BME280;15244;49.088;11.886;2023-12-20T10:03:25;95751.66;;;6.55;61.07
27425;BME280;15244;49.088;11.886;2023-12-20T10:08:27;95733.97;;;6.61;60.94
27425;BME280;15244;49.088;11.886;2023-12-20T10:13:31;95750.22;;;6.61;61.15
27425;BME280;15244;49.088;11.886;2023-12-20T10:18:33;95724.44;;;6.67;61.17
27425;BME280;15244;49.088;11.886;2023-12-20T10:23:42;95739.75;;;6.59;61.19
27425;BME280;15244;49.088;11.886;2023-12-20T10:28:43;95729.63;;;6.76;61.21
27425;BME280;15244;49.088;11.886;2023-12-20T10:33:45;95727.34;;;6.78;60.58
27425;BME280;15244;49.088;11.886;2023-12-20T10:38:50;95723.41;;;6.75;60.62
27425;BME280;15244;49.088;11.886;2023-12-20T10:44:01;95739.88;;;6.86;60.30
27425;BME280;15244;49.088;11.886;2023-12-20T10:49:07;95734.25;;;6.94;60.25
27425;BME280;15244;49.088;11.886;2023-12-20T10:54:12;95733.09;;;6.95;60.16
27425;BME280;15244;49.088;11.886;2023-12-20T10:59:17;95730.16;;;7.04;59.90
27425;BME280;15244;49.088;11.886;2023-12-20T11:10:00;95734.25;;;7.18;59.04
27425;BME280;15244;49.088;11.886;2023-12-20T11:15:06;95735.28;;;7.32;59.07
27425;BME280;15244;49.088;11.886;2023-12-20T11:20:14;95728.47;;;7.42;59.02
27425;BME280;15244;49.088;11.886;2023-12-20T11:25:16;95706.50;;;7.51;58.72
27425;BME280;15244;49.088;11.886;2023-12-20T11:30:21;95705.63;;;7.43;57.72
27425;BME280;15244;49.088;11.886;2023-12-20T11:35:22;95696.41;;;7.48;58.00
27425;BME280;15244;49.088;11.886;2023-12-20T11:40:27;95704.22;;;7.53;57.44
27425;BME280;15244;49.088;11.886;2023-12-20T11:45:35;95703.84;;;7.54;56.91
27425;BME280;15244;49.088;11.886;2023-12-20T11:50:39;95698.34;;;7.47;56.80
27425;BME280;15244;49.088;11.886;2023-12-20T11:55:48;95692.19;;;7.50;56.18
27425;BME280;15244;49.088;11.886;2023-12-20T12:00:52;95678.97;;;7.49;56.02
27425;BME280;15244;49.088;11.886;2023-12-20T12:05:56;95663.88;;;7.51;55.87
27425;BME280;15244;49.088;11.886;2023-12-20T12:10:58;95669.19;;;7.44;55.71
27425;BME280;15244;49.088;11.886;2023-12-20T12:16:04;95692.78;;;7.40;55.85
27425;BME280;15244;49.088;11.886;2023-12-20T12:21:06;95677.91;;;7.30;56.05
27425;BME280;15244;49.088;11.886;2023-12-20T12:26:18;95680.19;;;7.28;56.09
27425;BME280;15244;49.088;11.886;2023-12-20T12:31:23;95694.53;;;7.29;56.04
27425;BME280;15244;49.088;11.886;2023-12-20T12:36:29;95669.53;;;7.16;55.92
27425;BME280;15244;49.088;11.886;2023-12-20T12:41:36;95672.13;;;7.09;55.56
27425;BME280;15244;49.088;11.886;2023-12-20T12:46:38;95668.88;;;7.00;55.70
27425;BME280;15244;49.088;11.886;2023-12-20T12:51:44;95668.03;;;6.95;55.89
27425;BME280;15244;49.088;11.886;2023-12-20T12:56:46;95659.25;;;6.79;55.73
27425;BME280;15244;49.088;11.886;2023-12-20T13:01:51;95670.00;;;6.99;56.04
27425;BME280;15244;49.088;11.886;2023-12-20T13:07:13;95667.91;;;6.88;55.84
27425;BME280;15244;49.088;11.886;2023-12-20T13:12:15;95674.53;;;6.91;55.64
27425;BME280;15244;49.088;11.886;2023-12-20T13:17:19;95661.06;;;6.94;55.75
27425;BME280;15244;49.088;11.886;2023-12-20T13:22:23;95662.69;;;6.99;55.73
27425;BME280;15244;49.088;11.886;2023-12-20T13:27:29;95652.53;;;6.96;56.03
27425;BME280;15244;49.088;11.886;2023-12-20T13:32:31;95668.13;;;6.99;55.49
27425;BME280;15244;49.088;11.886;2023-12-20T13:37:36;95679.00;;;6.80;55.92
27425;BME280;15244;49.088;11.886;2023-12-20T13:42:43;95682.94;;;6.63;56.52
27425;BME280;15244;49.088;11.886;2023-12-20T13:47:47;95676.78;;;6.66;56.40
27425;BME280;15244;49.088;11.886;2023-12-20T13:52:56;95671.88;;;6.71;56.83
27425;BME280;15244;49.088;11.886;2023-12-20T13:58:00;95681.66;;;6.76;56.66
27425;BME280;15244;49.088;11.886;2023-12-20T14:03:08;95670.72;;;6.72;57.13
27425;BME280;15244;49.088;11.886;2023-12-20T14:08:11;95674.09;;;6.66;56.86
27425;BME280;15244;49.088;11.886;2023-12-20T14:13:17;95674.66;;;6.75;57.15
27425;BME280;15244;49.088;11.886;2023-12-20T14:18:19;95701.25;;;6.50;57.44
27425;BME280;15244;49.088;11.886;2023-12-20T14:23:23;95680.47;;;6.54;57.39
27425;BME280;15244;49.088;11.886;2023-12-20T14:28:26;95666.13;;;6.54;56.77
27425;BME280;15244;49.088;11.886;2023-12-20T14:33:29;95665.22;;;6.46;56.75
27425;BME280;15244;49.088;11.886;2023-12-20T14:38:31;95669.34;;;6.59;56.90
27425;BME280;15244;49.088;11.886;2023-12-20T14:43:33;95658.78;;;6.54;55.89
27425;BME280;15244;49.088;11.886;2023-12-20T14:48:34;95656.56;;;6.60;56.26
27425;BME280;15244;49.088;11.886;2023-12-20T14:53:36;95664.22;;;6.54;55.97
27425;BME280;15244;49.088;11.886;2023-12-20T14:58:44;95657.72;;;6.59;55.68
27425;BME280;15244;49.088;11.886;2023-12-20T15:03:46;95660.78;;;6.57;55.65
27425;BME280;15244;49.088;11.886;2023-12-20T15:08:50;95644.53;;;6.57;55.84
27425;BME280;15244;49.088;11.886;2023-12-20T15:13:57;95649.59;;;6.59;55.93
27425;BME280;15244;49.088;11.886;2023-12-20T15:19:02;95648.78;;;6.58;56.04
27425;BME280;15244;49.088;11.886;2023-12-20T15:24:05;95635.34;;;6.42;55.64
27425;BME280;15244;49.088;11.886;2023-12-20T15:29:21;95638.63;;;6.32;56.10
27425;BME280;15244;49.088;11.886;2023-12-20T15:34:24;95633.09;;;6.25;55.73
27425;BME280;15244;49.088;11.886;2023-12-20T15:39:29;95640.38;;;6.21;56.32
27425;BME280;15244;49.088;11.886;2023-12-20T15:44:37;95629.81;;;6.16;56.26
27425;BME280;15244;49.088;11.886;2023-12-20T15:49:40;95640.56;;;6.12;56.02
27425;BME280;15244;49.088;11.886;2023-12-20T15:54:45;95652.16;;;6.13;56.57
27425;BME280;15244;49.088;11.886;2023-12-20T15:59:50;95646.97;;;6.04;56.60
27425;BME280;15244;49.088;11.886;2023-12-20T16:04:53;95644.75;;;5.90;56.01
27425;BME280;15244;49.088;11.886;2023-12-20T16:10:00;95654.44;;;5.91;56.48
27425;BME280;15244;49.088;11.886;2023-12-20T16:15:10;95639.25;;;5.86;57.16
27425;BME280;15244;49.088;11.886;2023-12-20T16:20:19;95651.94;;;5.82;56.89
27425;BME280;15244;49.088;11.886;2023-12-20T16:25:22;95641.19;;;5.86;56.79
27425;BME280;15244;49.088;11.886;2023-12-20T16:30:26;95651.38;;;5.93;56.44
27425;BME280;15244;49.088;11.886;2023-12-20T16:35:28;95648.84;;;5.84;56.57
27425;BME280;15244;49.088;11.886;2023-12-20T16:40:33;95644.03;;;5.93;56.45
27425;BME280;15244;49.088;11.886;2023-12-20T16:45:45;95645.63;;;5.94;56.24
27425;BME280;15244;49.088;11.886;2023-12-20T16:50:48;95623.97;;;5.94;56.60
27425;BME280;15244;49.088;11.886;2023-12-20T16:55:50;95618.91;;;5.93;56.24
27425;BME280;15244;49.088;11.886;2023-12-20T17:00:56;95610.91;;;5.80;56.85
27425;BME280;15244;49.088;11.886;2023-12-20T17:06:03;95622.81;;;5.76;56.50
27425;BME280;15244;49.088;11.886;2023-12-20T17:11:07;95601.34;;;5.67;56.35
27425;BME280;15244;49.088;11.886;2023-12-20T17:16:08;95606.84;;;5.71;56.26
27425;BME280;15244;49.088;11.886;2023-12-20T17:21:10;95627.19;;;5.64;56.73
27425;BME280;15244;49.088;11.886;2023-12-20T17:26:14;95650.56;;;5.73;56.64
27425;BME280;15244;49.088;11.886;2023-12-20T17:31:16;95639.97;;;5.83;56.41
27425;BME280;15244;49.088;11.886;2023-12-20T17:36:18;95662.16;;;5.73;56.60
27425;BME280;15244;49.088;11.886;2023-12-20T17:41:20;95669.00;;;5.86;56.13
27425;BME280;15244;49.088;11.886;2023-12-20T17:46:24;95691.31;;;5.80;56.46
27425;BME280;15244;49.088;11.886;2023-12-20T17:51:30;95670.06;;;5.82;56.42
27425;BME280;15244;49.088;11.886;2023-12-20T17:56:33;95670.06;;;5.82;56.45
27425;BME280;15244;49.088;11.886;2023-12-20T18:01:37;95671.56;;;5.79;56.79
27425;BME280;15244;49.088;11.886;2023-12-20T18:06:46;95681.88;;;5.74;56.52
27425;BME280;15244;49.088;11.886;2023-12-20T18:11:49;95680.03;;;5.78;56.45
27425;BME280;15244;49.088;11.886;2023-12-20T18:16:55;95687.09;;;5.82;56.56
27425;BME280;15244;49.088;11.886;2023-12-20T18:21:57;95693.19;;;5.79;56.62
27425;BME280;15244;49.088;11.886;2023-12-20T18:27:00;95696.72;;;5.80;56.91
27425;BME280;15244;49.088;11.886;2023-12-20T18:32:01;95689.34;;;5.96;56.60
27425;BME280;15244;49.088;11.886;2023-12-20T18:37:03;95685.94;;;5.99;56.49
27425;BME280;15244;49.088;11.886;2023-12-20T18:42:08;95691.63;;;5.94;56.09
27425;BME280;15244;49.088;11.886;2023-12-20T18:47:09;95680.88;;;5.98;56.80
27425;BME280;15244;49.088;11.886;2023-12-20T18:52:13;95681.66;;;5.98;56.98
27425;BME280;15244;49.088;11.886;2023-12-20T18:57:18;95690.91;;;5.97;56.57
27425;BME280;15244;49.088;11.886;2023-12-20T19:02:22;95704.97;;;5.87;56.83
27425;BME280;15244;49.088;11.886;2023-12-20T19:07:26;95690.75;;;5.90;56.48
27425;BME280;15244;49.088;11.886;2023-12-20T19:12:27;95697.72;;;5.91;56.37
27425;BME280;15244;49.088;11.886;2023-12-20T19:17:29;95695.34;;;5.90;56.75
27425;BME280;15244;49.088;11.886;2023-12-20T19:22:31;95690.50;;;5.95;56.92
27425;BME280;15244;49.088;11.886;2023-12-20T19:27:35;95679.50;;;5.88;57.34
27425;BME280;15244;49.088;11.886;2023-12-20T19:32:39;95679.31;;;5.97;57.39
27425;BME280;15244;49.088;11.886;2023-12-20T19:37:41;95675.88;;;6.00;57.26
27425;BME280;15244;49.088;11.886;2023-12-20T19:42:49;95667.72;;;5.80;57.40
27425;BME280;15244;49.088;11.886;2023-12-20T19:47:52;95675.59;;;5.70;57.76
27425;BME280;15244;49.088;11.886;2023-12-20T19:52:56;95676.63;;;5.81;57.54
27425;BME280;15244;49.088;11.886;2023-12-20T19:57:58;95666.16;;;5.79;57.86
27425;BME280;15244;49.088;11.886;2023-12-20T20:03:03;95664.59;;;5.78;57.74
27425;BME280;15244;49.088;11.886;2023-12-20T20:08:07;95663.84;;;5.62;57.92
27425;BME280;15244;49.088;11.886;2023-12-20T20:13:09;95652.25;;;5.61;58.09
27425;BME280;15244;49.088;11.886;2023-12-20T20:18:14;95677.34;;;5.62;58.43
27425;BME280;15244;49.088;11.886;2023-12-20T20:23:19;95644.84;;;5.58;58.00
27425;BME280;15244;49.088;11.886;2023-12-20T20:28:20;95641.25;;;5.54;58.67
27425;BME280;15244;49.088;11.886;2023-12-20T20:33:36;95628.53;;;5.55;58.91
27425;BME280;15244;49.088;11.886;2023-12-20T20:38:38;95624.72;;;5.40;59.05
27425;BME280;15244;49.088;11.886;2023-12-20T20:43:42;95621.59;;;5.38;58.79
27425;BME280;15244;49.088;11.886;2023-12-20T20:48:46;95617.16;;;5.30;59.18
27425;BME280;15244;49.088;11.886;2023-12-20T20:53:56;95611.56;;;5.38;58.84
27425;BME280;15244;49.088;11.886;2023-12-20T20:59:12;95590.47;;;5.28;59.70
27425;BME280;15244;49.088;11.886;2023-12-20T21:04:16;95610.66;;;5.15;60.06
27425;BME280;15244;49.088;11.886;2023-12-20T21:09:19;95576.03;;;5.20;59.18
27425;BME280;15244;49.088;11.886;2023-12-20T21:14:21;95595.03;;;5.08;59.87
27425;BME280;15244;49.088;11.886;2023-12-20T21:19:23;95578.94;;;4.96;60.64
27425;BME280;15244;49.088;11.886;2023-12-20T21:24:26;95563.44;;;4.93;60.51
27425;BME280;15244;49.088;11.886;2023-12-20T21:29:27;95570.56;;;4.85;60.67
27425;BME280;15244;49.088;11.886;2023-12-20T21:34:31;95568.66;;;4.86;60.10
27425;BME280;15244;49.088;11.886;2023-12-20T21:39:33;95565.91;;;4.66;61.15
27425;BME280;15244;49.088;11.886;2023-12-20T21:44:37;95565.38;;;4.76;60.88
27425;BME280;15244;49.088;11.886;2023-12-20T21:49:40;95553.06;;;4.63;61.22
27425;BME280;15244;49.088;11.886;2023-12-20T21:54:43;95547.59;;;4.60;61.58
27425;BME280;15244;49.088;11.886;2023-12-20T21:59:48;95558.75;;;4.74;60.67
27425;BME280;15244;49.088;11.886;2023-12-20T22:04:52;95549.84;;;4.73;61.30
27425;BME280;15244;49.088;11.886;2023-12-20T22:09:54;95522.06;;;4.73;61.06
27425;BME280;15244;49.088;11.886;2023-12-20T22:14:58;95510.81;;;4.71;61.10
27425;BME280;15244;49.088;11.886;2023-12-20T22:20:00;95520.84;;;4.70;61.08
27425;BME280;15244;49.088;11.886;2023-12-20T22:25:02;95514.16;;;4.64;60.99
27425;BME280;15244;49.088;11.886;2023-12-20T22:30:11;95511.63;;;4.71;61.00
27425;BME280;15244;49.088;11.886;2023-12-20T22:35:16;95492.88;;;4.78;61.00
27425;BME280;15244;49.088;11.886;2023-12-20T22:40:18;95485.84;;;4.74;61.62
27425;BME280;15244;49.088;11.886;2023-12-20T22:45:24;95479.00;;;4.80;60.85
27425;BME280;15244;49.088;11.886;2023-12-20T22:50:28;95468.72;;;4.86;60.87
27425;BME280;15244;49.088;11.886;2023-12-20T22:55:31;95463.19;;;4.78;61.14
27425;BME280;15244;49.088;11.886;2023-12-20T23:00:39;95475.09;;;4.77;60.82
27425;BME280;15244;49.088;11.886;2023-12-20T23:05:41;95476.91;;;4.73;61.34
27425;BME280;15244;49.088;11.886;2023-12-20T23:10:43;95450.88;;;4.81;60.85
27425;BME280;15244;49.088;11.886;2023-12-20T23:15:50;95462.75;;;4.96;60.68
27425;BME280;15244;49.088;11.886;2023-12-20T23:20:56;95454.47;;;5.05;60.21
27425;BME280;15244;49.088;11.886;2023-12-20T23:25:58;95437.19;;;5.09;60.09
27425;BME280;15244;49.088;11.886;2023-12-20T23:31:00;95414.72;;;5.05;60.35
27425;BME280;15244;49.088;11.886;2023-12-20T23:36:02;95403.41;;;4.99;60.55
27425;BME280;15244;49.088;11.886;2023-12-20T23:41:09;95395.84;;;5.09;60.42
27425;BME280;15244;49.088;11.886;2023-12-20T23:46:15;95373.47;;;5.08;60.20
27425;BME280;15244;49.088;11.886;2023-12-20T23:51:20;95367.09;;;4.97;60.17
27425;BME280;15244;49.088;11.886;2023-12-20T23:56:24;95387.06;;;4.92;60.38
